Time;durP1;ratioP1;P1;durP2;ratioP2;P2;SDS_P1;SDS_P2;PMS_P1;PMS_P2;Temp;Humidity;BMP_temperature;BMP_pressure;BME280_temperature;BME280_humidity;BME280_pressure;Samples;Min_cycle;Max_cycle;Signal;HPM_P1;HPM_P2
2023/11/09 00:00:09;;;;;;;4.68;1.30;;;;;;;15.11;78.89;99974.72;4941553;29;20059;-62
2023/11/09 00:02:36;;;;;;;8.68;2.05;;;;;;;14.93;79.08;99965.19;4935460;29;20046;-63
2023/11/09 00:05:04;;;;;;;5.05;1.60;;;;;;;14.85;79.24;99960.66;4934351;29;20064;-62
2023/11/09 00:07:32;;;;;;;4.45;1.40;;;;;;;14.61;79.87;99955.28;4935485;29;20063;-62
2023/11/09 00:10:02;;;;;;;6.70;1.58;;;;;;;14.60;81.10;99957.28;4934552;29;20055;-63
2023/11/09 00:13:10;;;;;;;6.88;1.75;;;;;;;14.66;81.02;99957.81;4949358;29;20066;-66
2023/11/09 00:15:40;;;;;;;2.92;1.27;;;;;;;14.80;81.52;99962.88;4925865;29;20631;-63
2023/11/09 00:18:07;;;;;;;7.43;1.30;;;;;;;14.75;80.68;99949.31;4934413;29;20048;-63
2023/11/09 00:20:35;;;;;;;3.92;1.38;;;;;;;14.85;81.65;99949.56;4965376;28;20067;-62
2023/11/09 00:23:02;;;;;;;2.08;1.02;;;;;;;14.63;81.86;99945.47;4933809;29;20055;-62
2023/11/09 00:25:29;;;;;;;4.15;1.30;;;;;;;14.67;82.60;99937.22;4934215;29;20043;-63
2023/11/09 00:27:56;;;;;;;4.47;1.20;;;;;;;14.32;83.15;99933.56;4932959;29;20133;-63
2023/11/09 00:30:23;;;;;;;4.40;1.20;;;;;;;14.23;84.11;99943.97;4933315;29;20062;-64
2023/11/09 00:32:51;;;;;;;5.90;1.20;;;;;;;14.15;86.11;99931.13;4948467;29;20656;-63
2023/11/09 00:35:20;;;;;;;3.42;1.20;;;;;;;14.10;86.35;99923.09;4949102;28;20470;-63
2023/11/09 00:37:48;;;;;;;6.72;1.30;;;;;;;14.25;86.77;99930.59;4934176;29;20056;-63
2023/11/09 00:40:16;;;;;;;6.28;1.48;;;;;;;14.33;85.15;99926.88;4934325;29;20050;-63
2023/11/09 00:42:43;;;;;;;2.42;0.95;;;;;;;14.41;86.06;99925.88;4934461;29;20051;-64
2023/11/09 00:45:11;;;;;;;2.85;1.10;;;;;;;14.36;85.43;99926.16;4948320;29;20054;-63
2023/11/09 00:47:38;;;;;;;4.38;1.40;;;;;;;13.88;86.48;99929.22;4934830;29;20040;-64
2023/11/09 00:50:06;;;;;;;4.90;1.27;;;;;;;13.93;88.03;99920.66;4933669;29;20062;-62
2023/11/09 00:52:33;;;;;;;3.92;1.20;;;;;;;14.27;86.95;99922.75;4935991;28;20055;-61
2023/11/09 00:55:00;;;;;;;2.70;1.10;;;;;;;14.47;86.96;99932.78;4920243;29;20065;-62
2023/11/09 00:57:31;;;;;;;2.65;1.00;;;;;;;14.35;86.38;99928.13;4944413;29;20410;-62
2023/11/09 00:59:59;;;;;;;3.28;1.00;;;;;;;14.63;86.31;99925.25;4953389;29;20078;-64
2023/11/09 01:02:26;;;;;;;2.78;0.80;;;;;;;14.52;86.62;99921.44;4967761;28;20070;-61
2023/11/09 01:04:54;;;;;;;3.28;0.80;;;;;;;14.45;86.72;99930.34;4952316;29;20058;-62
2023/11/09 01:07:21;;;;;;;2.20;0.80;;;;;;;14.58;86.47;99929.09;4958808;28;20044;-61
2023/11/09 01:09:49;;;;;;;3.67;0.80;;;;;;;14.41;86.60;99923.13;4949067;29;20063;-62
2023/11/09 01:12:17;;;;;;;1.92;0.90;;;;;;;14.19;88.11;99921.72;4934494;29;20051;-62
2023/11/09 01:14:44;;;;;;;1.80;0.80;;;;;;;14.31;88.47;99916.13;4934310;29;20060;-61
2023/11/09 01:17:12;;;;;;;2.05;0.80;;;;;;;14.65;87.25;99911.84;4931565;29;20787;-62
2023/11/09 01:19:57;;;;;;;3.03;0.88;;;;;;;14.47;86.91;99914.16;4933134;29;20056;-64
2023/11/09 01:22:25;;;;;;;2.13;0.80;;;;;;;14.41;88.34;99915.63;4933895;29;20070;-62
2023/11/09 01:24:52;;;;;;;4.63;1.00;;;;;;;14.41;88.20;99921.16;4934222;29;20055;-62
2023/11/09 01:27:20;;;;;;;2.22;0.85;;;;;;;14.36;87.91;99910.34;4934509;29;20393;-61
2023/11/09 01:29:47;;;;;;;1.95;0.80;;;;;;;14.22;88.97;99900.84;4933875;29;20397;-63
2023/11/09 01:32:14;;;;;;;3.78;0.95;;;;;;;14.45;88.40;99908.19;4929034;29;20539;-62
2023/11/09 01:34:42;;;;;;;4.80;0.90;;;;;;;14.22;88.54;99892.53;4930385;29;20056;-62
2023/11/09 01:37:11;;;;;;;1.98;0.75;;;;;;;14.30;89.01;99889.63;4917322;29;20059;-62
2023/11/09 01:39:39;;;;;;;3.58;1.13;;;;;;;14.31;89.35;99891.19;4928493;29;20048;-62
2023/11/09 01:42:07;;;;;;;1.42;0.68;;;;;;;14.42;89.05;99897.00;4937723;29;20047;-62
2023/11/09 01:44:35;;;;;;;1.20;0.60;;;;;;;14.26;88.86;99891.47;4936260;29;20584;-62
2023/11/09 01:47:03;;;;;;;1.25;0.60;;;;;;;14.39;89.14;99893.00;4952128;29;20051;-62
2023/11/09 01:49:30;;;;;;;2.85;0.80;;;;;;;14.46;87.95;99881.28;4952047;29;20120;-63
2023/11/09 01:51:57;;;;;;;2.72;0.65;;;;;;;14.26;88.74;99879.63;4937467;29;20058;-62
2023/11/09 01:54:32;;;;;;;3.33;0.60;;;;;;;14.56;88.56;99880.72;4938042;29;20057;-65
2023/11/09 01:57:19;;;;;;;2.05;0.50;;;;;;;14.44;88.37;99880.84;4901355;29;20047;-63
2023/11/09 01:59:50;;;;;;;0.80;0.60;;;;;;;14.34;88.68;99878.63;4968513;28;20618;-63
2023/11/09 02:02:18;;;;;;;1.05;0.50;;;;;;;14.47;88.53;99880.13;4952861;28;20419;-62
2023/11/09 02:04:49;;;;;;;1.08;0.60;;;;;;;14.46;88.05;99878.50;4935847;29;20059;-64
2023/11/09 02:07:17;;;;;;;1.25;0.50;;;;;;;14.51;87.76;99879.03;4945190;28;20059;-61
2023/11/09 02:09:48;;;;;;;2.20;0.65;;;;;;;14.70;87.31;99874.72;4956043;29;20522;-63
2023/11/09 02:12:17;;;;;;;2.75;0.75;;;;;;;14.48;87.11;99865.09;4971418;28;20089;-63
2023/11/09 02:14:44;;;;;;;3.05;0.60;;;;;;;14.21;88.45;99869.56;4956643;29;20565;-64
2023/11/09 02:17:12;;;;;;;2.85;0.50;;;;;;;14.38;87.50;99852.59;4952495;28;20048;-63
2023/11/09 02:19:52;;;;;;;1.75;0.60;;;;;;;14.46;88.21;99850.81;4953562;28;20055;-62
2023/11/09 02:22:28;;;;;;;1.00;0.60;;;;;;;14.83;86.43;99854.03;4967603;28;20056;-62
2023/11/09 02:25:11;;;;;;;1.92;0.50;;;;;;;14.74;86.36;99853.41;4967619;28;20060;-63
2023/11/09 02:27:39;;;;;;;1.27;0.60;;;;;;;14.60;87.24;99860.25;4951840;28;20058;-63
2023/11/09 02:30:07;;;;;;;2.15;0.60;;;;;;;14.22;89.16;99860.09;4967239;28;20059;-63
2023/11/09 02:32:34;;;;;;;1.02;0.63;;;;;;;14.55;89.33;99868.03;4935766;29;20047;-62
2023/11/09 02:35:02;;;;;;;2.05;0.68;;;;;;;14.48;89.61;99868.69;4935528;29;20060;-63
2023/11/09 02:37:30;;;;;;;2.20;0.77;;;;;;;14.54;89.51;99860.88;4950665;29;20051;-63
2023/11/09 02:39:57;;;;;;;2.58;0.70;;;;;;;14.70;87.68;99863.66;4935419;29;20059;-63
2023/11/09 02:42:25;;;;;;;2.50;0.80;;;;;;;14.05;88.96;99873.50;4936393;29;20066;-63
2023/11/09 02:44:52;;;;;;;6.57;1.38;;;;;;;13.62;87.41;99879.06;4937069;29;20074;-63
2023/11/09 02:47:19;;;;;;;9.77;1.92;;;;;;;12.14;95.75;99891.09;4916604;29;20056;-62
2023/11/09 02:49:48;;;;;;;8.00;1.42;;;;;;;12.56;100.00;99886.94;4962255;28;20056;-62
2023/11/09 02:52:16;;;;;;;7.22;1.35;;;;;;;12.77;97.02;99873.00;4936967;29;20423;-63
2023/11/09 02:54:43;;;;;;;12.57;2.33;;;;;;;12.60;97.45;99882.34;4950882;29;20062;-63
2023/11/09 02:57:11;;;;;;;14.68;2.55;;;;;;;12.48;96.38;99889.84;4950934;29;20055;-63
2023/11/09 02:59:39;;;;;;;10.65;1.90;;;;;;;13.06;96.17;99890.13;4966077;28;20597;-63
2023/11/09 03:02:08;;;;;;;18.17;2.38;;;;;;;13.07;93.44;99897.28;4937092;29;20052;-63
2023/11/09 03:04:35;;;;;;;11.70;1.80;;;;;;;13.63;92.94;99900.88;4937827;29;20063;-63
2023/11/09 03:07:07;;;;;;;13.02;2.17;;;;;;;14.18;89.34;99899.94;4944478;29;20059;-64
2023/11/09 03:09:40;;;;;;;12.70;1.95;;;;;;;14.47;86.86;99911.41;4977127;28;20054;-61
2023/11/09 03:12:08;;;;;;;12.00;2.58;;;;;;;14.76;85.51;99901.00;4967155;28;20435;-60
2023/11/09 03:14:35;;;;;;;13.43;2.40;;;;;;;14.09;86.22;99897.34;4935680;29;20064;-61
2023/11/09 03:17:07;;;;;;;15.70;2.70;;;;;;;14.02;86.73;99888.84;4939766;28;20047;-62
2023/11/09 03:19:35;;;;;;;14.00;2.42;;;;;;;14.25;87.06;99886.28;4936081;29;20059;-62
2023/11/09 03:22:03;;;;;;;12.32;2.55;;;;;;;14.35;86.47;99883.78;4936258;29;20431;-62
2023/11/09 03:24:33;;;;;;;10.48;2.45;;;;;;;14.20;85.41;99892.06;4950606;28;20056;-61
2023/11/09 03:27:02;;;;;;;11.97;1.77;;;;;;;14.05;87.16;99890.91;4951323;29;20059;-61
2023/11/09 03:29:33;;;;;;;16.42;2.55;;;;;;;13.37;83.98;99906.84;4936796;29;20040;-65
2023/11/09 03:32:06;;;;;;;16.35;3.25;;;;;;;12.80;85.88;99910.97;4964750;28;20056;-63
2023/11/09 03:34:34;;;;;;;19.08;2.72;;;;;;;12.18;88.76;99912.16;4935969;29;20075;-63
2023/11/09 03:37:01;;;;;;;17.77;3.05;;;;;;;12.43;94.84;99912.94;4935876;29;20089;-63
2023/11/09 03:39:32;;;;;;;15.50;2.80;;;;;;;13.36;87.63;99904.41;4966805;28;20055;-63
2023/11/09 03:42:00;;;;;;;15.73;3.00;;;;;;;13.12;89.70;99907.28;4947176;29;20052;-63
2023/11/09 03:44:37;;;;;;;20.45;3.20;;;;;;;12.63;85.90;99908.47;4935614;29;20066;-63
2023/11/09 03:47:05;;;;;;;20.00;2.67;;;;;;;12.67;87.05;99915.72;4967563;28;20062;-62
2023/11/09 03:49:32;;;;;;;18.30;2.88;;;;;;;12.05;88.15;99907.75;4941941;29;20052;-63
2023/11/09 03:52:00;;;;;;;20.17;2.65;;;;;;;13.04;90.97;99909.00;4934421;29;20084;-63
2023/11/09 03:54:27;;;;;;;17.10;2.70;;;;;;;13.85;87.54;99896.69;4935261;29;20104;-63
2023/11/09 03:56:54;;;;;;;16.42;2.70;;;;;;;13.58;85.73;99887.28;4964603;28;20059;-61
2023/11/09 03:59:21;;;;;;;18.00;3.58;;;;;;;14.21;83.91;99886.19;4935013;29;20052;-63
2023/11/09 04:01:48;;;;;;;23.08;2.90;;;;;;;13.46;82.77;99887.31;4937434;29;20053;-63
2023/11/09 04:04:17;;;;;;;12.77;2.53;;;;;;;14.06;84.82;99889.75;4934814;29;20657;-63
2023/11/09 04:06:47;;;;;;;13.15;2.47;;;;;;;14.26;83.27;99894.25;4934793;29;20052;-70
2023/11/09 04:09:14;;;;;;;19.30;3.47;;;;;;;14.41;82.85;99892.66;4931744;29;20062;-63
2023/11/09 04:11:41;;;;;;;13.18;3.03;;;;;;;13.98;82.46;99887.94;4934058;29;20051;-63
2023/11/09 04:14:09;;;;;;;14.27;2.85;;;;;;;13.98;84.52;99887.94;4933991;29;20055;-63
2023/11/09 04:16:36;;;;;;;12.95;2.30;;;;;;;14.36;83.84;99888.19;4934648;29;20423;-63
2023/11/09 04:19:03;;;;;;;13.63;2.53;;;;;;;14.53;83.11;99896.13;4964472;28;20059;-63
2023/11/09 04:21:30;;;;;;;15.15;2.78;;;;;;;14.42;81.07;99905.31;4934859;29;20051;-63
2023/11/09 04:24:00;;;;;;;16.58;2.67;;;;;;;14.26;83.15;99904.53;4964562;28;20059;-63
2023/11/09 04:26:32;;;;;;;14.52;2.58;;;;;;;14.58;83.20;99914.44;4964464;28;20058;-62
2023/11/09 04:29:03;;;;;;;16.75;2.25;;;;;;;14.36;83.56;99913.13;4931592;29;20048;-63
2023/11/09 04:31:31;;;;;;;13.50;2.60;;;;;;;14.38;83.73;99924.63;4933868;29;20047;-64
2023/11/09 04:34:04;;;;;;;16.48;3.00;;;;;;;14.39;83.79;99925.44;4934042;29;20048;-63
2023/11/09 04:36:31;;;;;;;14.73;3.25;;;;;;;14.38;83.98;99921.06;4933888;29;20055;-63
2023/11/09 04:38:59;;;;;;;17.83;2.92;;;;;;;14.33;83.84;99921.34;4948273;29;20071;-63
2023/11/09 04:41:26;;;;;;;17.13;3.42;;;;;;;14.50;83.48;99923.75;4934456;29;20052;-63
2023/11/09 04:43:55;;;;;;;17.15;2.85;;;;;;;13.86;84.78;99914.94;4934195;29;20058;-63
2023/11/09 04:46:23;;;;;;;13.93;2.40;;;;;;;14.19;85.63;99927.28;4947309;28;20063;-63
2023/11/09 04:48:55;;;;;;;14.57;2.53;;;;;;;14.31;84.55;99927.22;4946443;29;20052;-63
2023/11/09 04:51:35;;;;;;;14.30;2.88;;;;;;;14.48;83.39;99929.66;4934127;29;20060;-66
2023/11/09 04:55:10;;;;;;;15.43;3.05;;;;;;;14.34;84.38;99926.53;4934228;29;20043;-63
2023/11/09 05:08:48;;;;;;;17.80;3.50;;;;;;;12.94;89.06;99939.06;4918929;29;20059;-64
2023/11/09 05:11:17;;;;;;;19.23;3.30;;;;;;;13.29;88.78;99937.41;4915211;29;20060;-64
2023/11/09 05:13:44;;;;;;;17.05;2.78;;;;;;;13.80;88.12;99944.00;4945343;29;20052;-63
2023/11/09 05:16:12;;;;;;;20.08;3.47;;;;;;;13.98;83.70;99937.78;4914627;29;20064;-64
2023/11/09 05:18:39;;;;;;;14.43;2.85;;;;;;;14.01;84.92;99941.81;4945402;29;20056;-63
2023/11/09 05:21:07;;;;;;;17.60;3.00;;;;;;;14.28;83.68;99946.53;4915196;29;20060;-63
2023/11/09 05:23:34;;;;;;;16.15;3.00;;;;;;;14.42;82.67;99944.94;4914821;29;20078;-63
2023/11/09 05:26:04;;;;;;;19.90;3.00;;;;;;;14.08;83.38;99940.06;4914867;29;20062;-63
2023/11/09 05:28:31;;;;;;;14.48;2.90;;;;;;;13.93;82.94;99937.28;4918785;29;20048;-64
2023/11/09 05:30:59;;;;;;;19.42;3.63;;;;;;;13.60;84.58;99942.28;4932254;29;20059;-63
2023/11/09 05:33:26;;;;;;;19.55;3.28;;;;;;;14.16;84.13;99944.63;4934187;29;20044;-63
2023/11/09 05:35:54;;;;;;;16.75;3.40;;;;;;;14.08;81.95;99944.78;4934432;29;20492;-63
2023/11/09 05:38:21;;;;;;;18.30;3.70;;;;;;;13.43;83.35;99954.41;4933809;29;20052;-63
2023/11/09 05:40:49;;;;;;;19.80;3.10;;;;;;;13.67;85.10;99953.53;4933380;29;20052;-63
2023/11/09 05:43:17;;;;;;;17.55;4.55;;;;;;;13.80;84.22;99958.66;4933370;29;20059;-63
2023/11/09 05:45:45;;;;;;;12.80;2.75;;;;;;;13.78;84.36;99946.31;4933120;29;20059;-66
2023/11/09 05:48:31;;;;;;;16.60;3.20;;;;;;;14.25;83.01;99955.53;4965087;28;20054;-63
2023/11/09 05:51:04;;;;;;;20.23;3.22;;;;;;;13.82;80.90;99950.81;4963523;28;20166;-64
2023/11/09 05:53:31;;;;;;;19.45;3.15;;;;;;;14.07;83.38;99952.28;4933600;29;20055;-63
2023/11/09 05:55:59;;;;;;;22.58;2.88;;;;;;;14.10;81.40;99946.06;4933112;29;20051;-63
2023/11/09 05:58:26;;;;;;;17.35;3.20;;;;;;;14.11;82.33;99952.38;4947300;29;20047;-62
2023/11/09 06:00:53;;;;;;;19.75;3.22;;;;;;;14.22;81.67;99967.31;4962641;28;20071;-63
2023/11/09 06:03:22;;;;;;;17.08;3.90;;;;;;;14.15;83.46;99967.94;4933221;29;20063;-63
2023/11/09 06:05:50;;;;;;;18.25;2.85;;;;;;;14.24;81.86;99963.00;4963504;28;20075;-64
2023/11/09 06:08:43;;;;;;;19.65;3.67;;;;;;;14.01;81.75;99959.25;4947550;28;20060;-67
2023/11/09 06:11:10;;;;;;;19.17;2.90;;;;;;;13.88;84.42;99973.53;4933523;29;20063;-63
2023/11/09 06:13:37;;;;;;;13.65;2.72;;;;;;;13.96;83.71;99972.53;4932373;29;20059;-63
2023/11/09 06:16:05;;;;;;;15.20;3.33;;;;;;;13.58;83.54;99973.06;4932855;29;20086;-63
2023/11/09 06:18:36;;;;;;;20.35;3.85;;;;;;;13.30;85.28;99988.81;4931571;29;20063;-64
2023/11/09 06:21:10;;;;;;;20.98;3.05;;;;;;;12.87;87.21;99994.13;4963055;28;20051;-65
2023/11/09 06:23:50;;;;;;;15.18;3.50;;;;;;;13.34;87.84;99998.00;4965754;28;20060;-64
2023/11/09 06:26:30;;;;;;;19.95;3.75;;;;;;;14.08;84.61;99995.44;4961787;28;20059;-65
2023/11/09 06:29:03;;;;;;;15.85;3.47;;;;;;;13.54;84.40;100000.63;4937261;28;20044;-65
2023/11/09 06:31:33;;;;;;;16.02;3.35;;;;;;;13.81;84.40;100009.31;4966857;28;20055;-63
2023/11/09 06:34:01;;;;;;;13.00;2.85;;;;;;;14.02;83.59;100016.22;4967762;28;20063;-64
2023/11/09 06:36:31;;;;;;;18.30;3.38;;;;;;;14.08;83.04;100020.38;4970890;28;20055;-64
2023/11/09 06:39:14;;;;;;;16.90;3.47;;;;;;;13.87;84.54;100024.50;4962947;28;20437;-65
2023/11/09 06:41:45;;;;;;;17.00;2.97;;;;;;;14.17;83.38;100020.22;4950436;28;20357;-62
2023/11/09 06:44:16;;;;;;;19.65;3.35;;;;;;;14.28;82.02;100024.09;4947112;28;20051;-63
2023/11/09 06:46:45;;;;;;;;;;;;;;;13.84;82.88;100022.44;4937678;28;20508;-66
2023/11/09 06:49:19;;;;;;;20.38;3.45;;;;;;;13.98;82.39;100023.63;4940281;29;19923;-62
2023/11/09 06:51:46;;;;;;;18.70;3.38;;;;;;;14.21;84.27;100024.66;4944720;28;20056;-61
2023/11/09 06:54:15;;;;;;;15.32;3.00;;;;;;;13.94;83.75;100028.28;4961150;28;20055;-73
2023/11/09 06:56:43;;;;;;;18.37;3.27;;;;;;;13.97;82.83;100023.97;4971539;28;20059;-61
2023/11/09 06:59:10;;;;;;;20.55;3.42;;;;;;;13.83;82.56;100029.91;4951168;29;20058;-61
2023/11/09 07:01:43;;;;;;;15.48;2.85;;;;;;;13.88;83.50;100029.66;4970567;28;20052;-64
2023/11/09 07:04:10;;;;;;;16.33;3.63;;;;;;;14.08;82.54;100033.41;4978464;28;20066;-60
2023/11/09 07:06:38;;;;;;;22.33;3.28;;;;;;;14.18;82.91;100035.66;4949081;29;20540;-61
2023/11/09 07:09:05;;;;;;;16.17;2.83;;;;;;;14.27;82.06;100044.66;4935783;29;20036;-62
2023/11/09 07:11:32;;;;;;;20.58;3.50;;;;;;;13.86;83.62;100054.13;4948978;29;20055;-61
2023/11/09 07:14:04;;;;;;;18.10;4.07;;;;;;;13.91;83.66;100056.69;4934229;29;20503;-63
2023/11/09 07:16:31;;;;;;;15.50;3.17;;;;;;;14.42;87.99;100057.72;4935317;29;20047;-62
2023/11/09 07:18:59;;;;;;;15.30;3.00;;;;;;;14.39;89.10;100052.91;4950333;29;20048;-63
2023/11/09 07:21:27;;;;;;;22.10;3.53;;;;;;;14.10;88.45;100047.69;4933189;29;20455;-61
2023/11/09 07:23:59;;;;;;;17.23;3.40;;;;;;;14.13;88.79;100060.84;4935238;29;20054;-62
2023/11/09 07:26:27;;;;;;;12.15;2.80;;;;;;;13.96;87.59;100061.97;4960889;28;20439;-61
2023/11/09 07:28:54;;;;;;;17.55;3.53;;;;;;;13.45;85.82;100065.53;4929533;29;20058;-62
2023/11/09 07:31:21;;;;;;;17.52;2.72;;;;;;;13.96;89.81;100067.50;4965716;28;20067;-61
2023/11/09 07:33:50;;;;;;;15.48;3.03;;;;;;;13.97;84.06;100068.28;4934704;29;20055;-63
2023/11/09 07:36:18;;;;;;;14.63;3.00;;;;;;;13.84;82.74;100069.50;4939372;29;20075;-62
2023/11/09 07:38:45;;;;;;;19.23;4.20;;;;;;;13.75;83.08;100077.94;4966132;28;20046;-62
2023/11/09 07:41:14;;;;;;;19.90;4.15;;;;;;;13.94;81.71;100080.06;4947281;29;20048;-61
2023/11/09 07:43:41;;;;;;;21.83;3.92;;;;;;;14.01;81.59;100075.56;4934513;29;20075;-61
2023/11/09 07:46:08;;;;;;;16.33;2.95;;;;;;;14.13;80.79;100081.03;4951748;28;20048;-61
2023/11/09 07:48:36;;;;;;;16.45;3.15;;;;;;;13.67;79.83;100080.84;4934248;29;20048;-62
2023/11/09 07:51:03;;;;;;;20.25;3.80;;;;;;;13.41;82.26;100078.44;4943411;29;20047;-62
2023/11/09 07:53:31;;;;;;;17.80;3.58;;;;;;;13.62;82.64;100075.53;4936408;29;20071;-64
2023/11/09 07:55:58;;;;;;;18.45;3.65;;;;;;;13.56;81.44;100075.78;4939273;29;20054;-64
2023/11/09 07:58:29;;;;;;;18.38;3.38;;;;;;;13.94;81.38;100069.00;4935876;29;20055;-62
2023/11/09 08:00:57;;;;;;;21.92;3.97;;;;;;;13.79;81.49;100084.38;4952857;28;20051;-62
2023/11/09 08:03:24;;;;;;;16.05;3.45;;;;;;;13.88;79.22;100076.72;4945781;29;20059;-62
2023/11/09 08:05:52;;;;;;;17.27;3.03;;;;;;;14.12;80.03;100082.19;4936792;29;20059;-63
2023/11/09 08:08:19;;;;;;;14.57;3.55;;;;;;;14.17;79.05;100076.41;4959922;28;20051;-63
2023/11/09 08:10:47;;;;;;;14.15;3.03;;;;;;;13.92;79.89;100085.97;4940551;29;20511;-62
2023/11/09 08:13:16;;;;;;;13.15;2.92;;;;;;;14.08;79.04;100089.59;4952671;29;20055;-62
2023/11/09 08:15:43;;;;;;;16.65;3.83;;;;;;;13.85;79.18;100094.06;4984600;28;20062;-62
2023/11/09 08:18:10;;;;;;;20.85;5.80;;;;;;;13.74;79.48;100097.66;4947498;28;20071;-62
2023/11/09 08:20:38;;;;;;;16.65;4.22;;;;;;;13.94;79.27;100093.91;4951903;29;20047;-61
2023/11/09 08:23:08;;;;;;;15.70;3.92;;;;;;;14.18;77.75;100086.31;4952656;29;20058;-60
2023/11/09 08:25:35;;;;;;;22.95;4.00;;;;;;;13.71;78.66;100082.56;4946185;29;20043;-62
2023/11/09 08:28:03;;;;;;;22.88;7.80;;;;;;;13.80;78.08;100082.41;4947717;29;20055;-61
2023/11/09 08:30:30;;;;;;;19.60;3.80;;;;;;;13.52;77.74;100085.13;4937559;29;20498;-61
2023/11/09 08:32:58;;;;;;;20.25;3.70;;;;;;;13.52;80.52;100085.13;4947006;29;20070;-61
2023/11/09 08:35:25;;;;;;;16.30;3.50;;;;;;;13.87;79.08;100069.59;4937699;29;20055;-62
2023/11/09 08:37:52;;;;;;;16.15;3.40;;;;;;;13.99;77.79;100074.28;4966520;28;22160;-61
2023/11/09 08:40:27;;;;;;;19.33;4.20;;;;;;;13.86;77.16;100073.50;4928778;29;20594;-62
2023/11/09 08:42:57;;;;;;;18.52;3.80;;;;;;;14.06;78.99;100082.78;4948216;29;20048;-66
2023/11/09 08:45:27;;;;;;;19.70;3.90;;;;;;;14.19;76.02;100079.63;4944871;28;20051;-64
2023/11/09 08:47:55;;;;;;;18.48;3.88;;;;;;;14.17;74.23;100072.84;4946735;29;20141;-62
2023/11/09 08:50:24;;;;;;;17.48;3.90;;;;;;;14.16;75.77;100071.19;4939700;29;20048;-62
2023/11/09 08:52:53;;;;;;;23.95;3.70;;;;;;;14.30;74.91;100074.41;4925958;29;20062;-63
2023/11/09 08:55:22;;;;;;;12.95;3.58;;;;;;;14.37;73.81;100083.72;4934294;29;20064;-62
2023/11/09 08:57:50;;;;;;;16.00;3.50;;;;;;;14.36;74.15;100076.59;4931283;29;20055;-63
2023/11/09 09:00:18;;;;;;;18.42;5.50;;;;;;;14.79;73.22;100080.47;4954065;28;20059;-62
2023/11/09 09:02:48;;;;;;;20.25;6.93;;;;;;;14.28;72.73;100076.72;4952129;29;20082;-62
2023/11/09 09:05:17;;;;;;;20.80;4.70;;;;;;;14.55;73.50;100078.66;4944481;29;20380;-62
2023/11/09 09:07:46;;;;;;;15.93;4.15;;;;;;;14.39;73.47;100075.06;4935796;29;20166;-62
2023/11/09 09:10:15;;;;;;;18.30;3.92;;;;;;;14.55;73.55;100071.16;4943515;29;20059;-60
2023/11/09 09:12:47;;;;;;;26.45;4.55;;;;;;;14.81;72.82;100056.78;4951722;29;20576;-62
2023/11/09 09:15:16;;;;;;;16.20;4.38;;;;;;;14.40;72.50;100051.75;4956072;28;20432;-61
2023/11/09 09:17:49;;;;;;;19.13;3.63;;;;;;;14.55;73.04;100045.41;4944146;29;20051;-61
2023/11/09 09:20:20;;;;;;;25.10;4.55;;;;;;;14.43;73.31;100051.03;4933486;29;20063;-62
2023/11/09 09:22:52;;;;;;;18.55;3.97;;;;;;;14.44;72.45;100050.66;4964628;28;20456;-62
2023/11/09 09:25:22;;;;;;;18.35;3.83;;;;;;;14.09;74.05;100046.88;4933814;29;20052;-62
2023/11/09 09:27:53;;;;;;;22.38;4.45;;;;;;;14.02;73.66;100051.41;4940011;29;20056;-62
2023/11/09 09:30:22;;;;;;;21.52;4.32;;;;;;;14.02;74.60;100048.66;4951357;28;20579;-62
2023/11/09 09:32:51;;;;;;;20.42;4.75;;;;;;;14.24;73.50;100040.56;4951993;29;20047;-62
2023/11/09 09:35:20;;;;;;;22.00;5.07;;;;;;;14.26;74.07;100031.97;4937217;28;20075;-62
2023/11/09 09:37:50;;;;;;;18.33;3.80;;;;;;;14.53;73.62;100036.66;4931610;29;20051;-62
2023/11/09 09:40:25;;;;;;;23.70;4.45;;;;;;;14.54;72.74;100039.06;4952378;29;20047;-62
2023/11/09 09:43:02;;;;;;;25.38;3.90;;;;;;;14.57;73.03;100037.56;4948436;29;20051;-62
2023/11/09 09:45:33;;;;;;;19.10;3.95;;;;;;;14.15;73.83;100030.84;4932981;29;20036;-61
2023/11/09 09:48:01;;;;;;;23.77;3.90;;;;;;;14.29;73.32;100025.72;4963029;28;20064;-62
2023/11/09 09:50:30;;;;;;;23.17;4.30;;;;;;;14.06;73.99;100022.69;4969823;28;20054;-61
2023/11/09 09:52:58;;;;;;;20.35;4.40;;;;;;;14.20;74.52;100023.06;4944358;29;20443;-62
2023/11/09 09:55:27;;;;;;;22.90;5.53;;;;;;;14.45;73.51;100021.00;4952975;28;20051;-61
2023/11/09 09:57:55;;;;;;;21.92;5.38;;;;;;;14.49;73.68;100011.63;4946949;29;20058;-61
2023/11/09 10:00:23;;;;;;;22.73;4.43;;;;;;;14.50;72.25;100013.25;4972114;28;20576;-60
2023/11/09 10:02:52;;;;;;;23.92;3.85;;;;;;;14.56;72.96;100008.22;4950236;29;20121;-62
2023/11/09 10:05:24;;;;;;;24.35;5.07;;;;;;;14.60;71.82;100004.38;4986778;28;20059;-62
2023/11/09 10:07:59;;;;;;;20.00;3.67;;;;;;;14.82;72.63;100007.69;4943922;29;20525;-62
2023/11/09 10:10:32;;;;;;;;;;;;;;;14.32;73.00;100006.41;4945331;29;20055;-62
2023/11/09 10:13:06;;;;;;;17.52;4.43;;;;;;;14.99;72.60;100015.63;4954266;29;19922;-61
2023/11/09 10:15:33;;;;;;;20.02;3.50;;;;;;;15.29;70.71;100019.53;4952643;29;20063;-62
2023/11/09 10:18:01;;;;;;;27.95;9.48;;;;;;;15.03;70.97;100019.31;4944171;29;20051;-61
2023/11/09 10:20:29;;;;;;;19.95;5.18;;;;;;;15.28;70.11;100015.13;4943093;29;20051;-62
2023/11/09 10:22:57;;;;;;;15.63;3.50;;;;;;;15.37;69.92;100008.22;4948338;29;20055;-62
2023/11/09 10:25:29;;;;;;;17.35;3.95;;;;;;;15.43;69.55;100003.22;4949288;29;20510;-61
2023/11/09 10:28:07;;;;;;;18.48;3.50;;;;;;;15.13;69.56;99997.34;4938945;28;20063;-61
2023/11/09 10:30:41;;;;;;;23.70;4.60;;;;;;;14.94;69.68;100008.38;4935022;29;20626;-61
2023/11/09 10:33:09;;;;;;;18.67;4.63;;;;;;;15.17;69.94;100011.28;4950190;28;20066;-61
2023/11/09 10:35:38;;;;;;;19.67;3.55;;;;;;;14.97;69.37;99996.59;4936231;29;20480;-62
2023/11/09 10:38:09;;;;;;;22.65;4.22;;;;;;;14.56;72.53;99997.94;4935158;29;20056;-62
2023/11/09 10:40:41;;;;;;;27.10;4.57;;;;;;;14.71;72.46;99992.75;4936111;29;20055;-61
2023/11/09 10:43:33;;;;;;;21.08;4.13;;;;;;;14.95;71.85;99987.00;4935526;29;20056;-62
2023/11/09 10:46:04;;;;;;;21.23;4.30;;;;;;;14.84;71.87;99994.25;4936230;29;20063;-60
2023/11/09 10:48:32;;;;;;;23.73;4.78;;;;;;;14.77;71.91;99985.78;4966070;28;20059;-61
2023/11/09 10:51:03;;;;;;;22.30;4.18;;;;;;;15.08;71.69;99986.53;4932980;29;20055;-60
2023/11/09 10:53:32;;;;;;;23.90;4.03;;;;;;;14.80;71.82;99980.34;4965078;28;20078;-62
2023/11/09 10:56:01;;;;;;;24.65;5.22;;;;;;;15.14;72.22;99981.50;4935898;29;20058;-60
2023/11/09 10:58:33;;;;;;;19.20;3.97;;;;;;;15.00;72.67;99978.41;4934794;29;20525;-62
2023/11/09 11:01:05;;;;;;;25.80;5.45;;;;;;;14.84;72.81;99981.19;4931343;29;20063;-62
2023/11/09 11:03:39;;;;;;;25.02;4.93;;;;;;;14.76;73.64;99982.19;4926362;29;20604;-63
2023/11/09 11:06:16;;;;;;;26.42;5.25;;;;;;;15.10;73.78;99986.97;4932317;29;20056;-61
2023/11/09 11:08:47;;;;;;;20.38;4.18;;;;;;;15.38;72.54;99981.25;4946234;28;20090;-62
2023/11/09 11:11:26;;;;;;;20.95;3.97;;;;;;;15.44;71.68;99982.63;4935788;29;20055;-62
2023/11/09 11:13:59;;;;;;;16.10;3.80;;;;;;;15.31;72.11;99979.13;4934754;29;20058;-62
2023/11/09 11:16:51;;;;;;;21.17;4.10;;;;;;;15.48;72.40;99950.22;4935262;29;20435;-61
2023/11/09 11:19:37;;;;;;;20.75;3.92;;;;;;;15.22;73.02;99948.00;4935426;29;20067;-61
2023/11/09 11:22:44;;;;;;;20.27;4.32;;;;;;;14.88;74.48;99948.00;4930969;29;20531;-61
2023/11/09 11:25:28;;;;;;;24.92;5.25;;;;;;;15.00;75.06;99953.44;4931954;29;20059;-63
2023/11/09 11:27:57;;;;;;;20.67;4.75;;;;;;;15.15;75.81;99933.97;4933804;29;20051;-62
2023/11/09 11:30:29;;;;;;;24.10;5.57;;;;;;;15.00;76.28;99922.94;4936848;29;20059;-61
2023/11/09 11:32:57;;;;;;;17.63;4.85;;;;;;;14.94;77.09;99919.63;4965082;28;20059;-62
2023/11/09 11:36:01;;;;;;;22.35;4.45;;;;;;;15.07;76.59;99935.00;4935281;29;20086;-62
2023/11/09 11:38:29;;;;;;;22.13;5.97;;;;;;;14.98;76.73;99925.25;4926718;29;20463;-62
2023/11/09 11:41:00;;;;;;;16.92;5.78;;;;;;;15.30;76.30;99918.47;4961257;28;20052;-62
2023/11/09 11:43:40;;;;;;;19.10;5.50;;;;;;;15.51;75.05;99918.94;4934597;29;20048;-62
2023/11/09 11:46:12;;;;;;;18.17;7.07;;;;;;;15.37;74.74;99905.53;4935675;28;20071;-62
2023/11/09 11:48:42;;;;;;;15.02;6.50;;;;;;;15.88;74.52;99914.53;4935194;29;20069;-62